sensor_id;sensor_type;location;lat;lon;timestamp;temperature;humidity
23079;DHT22;11707;50.830;4.364;2023-10-09T00:02:13;18.50;47.90
23079;DHT22;11707;50.830;4.364;2023-10-09T00:04:40;18.60;46.30
23079;DHT22;11707;50.830;4.364;2023-10-09T00:07:13;18.70;42.80
23079;DHT22;11707;50.830;4.364;2023-10-09T00:09:44;18.60;40.90
23079;DHT22;11707;50.830;4.364;2023-10-09T00:12:17;18.50;46.70
23079;DHT22;11707;50.830;4.364;2023-10-09T00:14:48;18.60;45.60
23079;DHT22;11707;50.830;4.364;2023-10-09T00:17:16;18.50;47.40
23079;DHT22;11707;50.830;4.364;2023-10-09T00:19:43;18.40;50.90
23079;DHT22;11707;50.830;4.364;2023-10-09T00:22:09;18.50;46.40
23079;DHT22;11707;50.830;4.364;2023-10-09T00:24:55;18.40;51.90
23079;DHT22;11707;50.830;4.364;2023-10-09T00:27:41;18.50;49.80
23079;DHT22;11707;50.830;4.364;2023-10-09T00:30:15;18.50;47.70
23079;DHT22;11707;50.830;4.364;2023-10-09T00:32:45;18.30;55.10
23079;DHT22;11707;50.830;4.364;2023-10-09T00:35:25;18.20;59.60
23079;DHT22;11707;50.830;4.364;2023-10-09T00:38:09;18.20;59.40
23079;DHT22;11707;50.830;4.364;2023-10-09T00:40:50;18.10;65.20
23079;DHT22;11707;50.830;4.364;2023-10-09T00:43:29;17.90;69.50
23079;DHT22;11707;50.830;4.364;2023-10-09T00:46:02;18.00;65.40
23079;DHT22;11707;50.830;4.364;2023-10-09T00:48:37;18.00;67.80
23079;DHT22;11707;50.830;4.364;2023-10-09T00:51:07;17.90;67.80
23079;DHT22;11707;50.830;4.364;2023-10-09T00:56:22;17.90;72.10
23079;DHT22;11707;50.830;4.364;2023-10-09T00:58:55;17.80;77.10
23079;DHT22;11707;50.830;4.364;2023-10-09T01:01:25;17.80;75.80
23079;DHT22;11707;50.830;4.364;2023-10-09T01:04:03;17.70;82.20
23079;DHT22;11707;50.830;4.364;2023-10-09T01:06:46;17.60;84.90
23079;DHT22;11707;50.830;4.364;2023-10-09T01:09:34;17.50;89.00
23079;DHT22;11707;50.830;4.364;2023-10-09T01:12:08;17.50;88.80
23079;DHT22;11707;50.830;4.364;2023-10-09T01:14:43;17.50;90.10
23079;DHT22;11707;50.830;4.364;2023-10-09T01:17:09;17.50;89.60
23079;DHT22;11707;50.830;4.364;2023-10-09T01:19:37;17.40;91.20
23079;DHT22;11707;50.830;4.364;2023-10-09T01:22:03;17.50;90.50
23079;DHT22;11707;50.830;4.364;2023-10-09T01:24:41;17.40;90.20
23079;DHT22;11707;50.830;4.364;2023-10-09T01:27:07;17.40;89.30
23079;DHT22;11707;50.830;4.364;2023-10-09T01:29:42;17.40;88.90
23079;DHT22;11707;50.830;4.364;2023-10-09T01:32:09;17.50;86.70
23079;DHT22;11707;50.830;4.364;2023-10-09T01:34:42;17.50;88.40
23079;DHT22;11707;50.830;4.364;2023-10-09T01:37:11;17.50;85.30
23079;DHT22;11707;50.830;4.364;2023-10-09T01:39:41;17.50;86.30
23079;DHT22;11707;50.830;4.364;2023-10-09T01:42:08;17.50;83.00
23079;DHT22;11707;50.830;4.364;2023-10-09T01:44:35;17.50;85.70
23079;DHT22;11707;50.830;4.364;2023-10-09T01:47:01;17.60;84.60
23079;DHT22;11707;50.830;4.364;2023-10-09T01:49:36;17.60;75.20
23079;DHT22;11707;50.830;4.364;2023-10-09T01:52:07;17.70;57.40
23079;DHT22;11707;50.830;4.364;2023-10-09T01:54:38;17.80;56.50
23079;DHT22;11707;50.830;4.364;2023-10-09T01:57:09;17.80;57.20
23079;DHT22;11707;50.830;4.364;2023-10-09T01:59:43;17.90;48.50
23079;DHT22;11707;50.830;4.364;2023-10-09T02:02:12;17.90;44.40
23079;DHT22;11707;50.830;4.364;2023-10-09T02:07:37;18.10;29.50
23079;DHT22;11707;50.830;4.364;2023-10-09T02:10:10;18.10;27.30
23079;DHT22;11707;50.830;4.364;2023-10-09T02:12:56;18.20;26.00
23079;DHT22;11707;50.830;4.364;2023-10-09T02:15:31;18.20;23.10
23079;DHT22;11707;50.830;4.364;2023-10-09T02:18:15;18.30;20.30
23079;DHT22;11707;50.830;4.364;2023-10-09T02:23:25;18.10;26.40
23079;DHT22;11707;50.830;4.364;2023-10-09T02:25:56;18.10;23.10
23079;DHT22;11707;50.830;4.364;2023-10-09T02:28:27;18.10;22.90
23079;DHT22;11707;50.830;4.364;2023-10-09T02:30:58;18.20;21.60
23079;DHT22;11707;50.830;4.364;2023-10-09T02:33:26;18.10;20.80
23079;DHT22;11707;50.830;4.364;2023-10-09T02:35:58;17.80;28.10
23079;DHT22;11707;50.830;4.364;2023-10-09T02:38:31;17.80;28.20
23079;DHT22;11707;50.830;4.364;2023-10-09T02:40:59;17.80;30.00
23079;DHT22;11707;50.830;4.364;2023-10-09T02:43:32;17.70;34.60
23079;DHT22;11707;50.830;4.364;2023-10-09T02:46:13;17.80;34.80
23079;DHT22;11707;50.830;4.364;2023-10-09T02:48:47;17.70;38.10
23079;DHT22;11707;50.830;4.364;2023-10-09T02:51:26;17.60;42.50
23079;DHT22;11707;50.830;4.364;2023-10-09T02:53:56;17.70;42.80
23079;DHT22;11707;50.830;4.364;2023-10-09T02:56:27;17.70;38.30
23079;DHT22;11707;50.830;4.364;2023-10-09T02:59:02;17.70;41.10
23079;DHT22;11707;50.830;4.364;2023-10-09T03:01:39;17.60;42.20
23079;DHT22;11707;50.830;4.364;2023-10-09T03:04:09;17.50;45.70
23079;DHT22;11707;50.830;4.364;2023-10-09T03:06:40;17.40;50.60
23079;DHT22;11707;50.830;4.364;2023-10-09T03:09:19;17.30;57.20
23079;DHT22;11707;50.830;4.364;2023-10-09T03:11:52;17.20;61.60
23079;DHT22;11707;50.830;4.364;2023-10-09T03:14:19;17.30;58.60
23079;DHT22;11707;50.830;4.364;2023-10-09T03:16:47;17.30;52.70
23079;DHT22;11707;50.830;4.364;2023-10-09T03:19:14;17.20;58.20
23079;DHT22;11707;50.830;4.364;2023-10-09T03:21:40;17.30;54.20
23079;DHT22;11707;50.830;4.364;2023-10-09T03:24:07;17.40;49.10
23079;DHT22;11707;50.830;4.364;2023-10-09T03:26:33;17.40;45.20
23079;DHT22;11707;50.830;4.364;2023-10-09T03:28:59;17.50;41.70
23079;DHT22;11707;50.830;4.364;2023-10-09T03:31:45;17.60;37.80
23079;DHT22;11707;50.830;4.364;2023-10-09T03:34:12;17.50;35.50
23079;DHT22;11707;50.830;4.364;2023-10-09T03:36:42;17.50;37.70
23079;DHT22;11707;50.830;4.364;2023-10-09T03:39:09;17.50;38.00
23079;DHT22;11707;50.830;4.364;2023-10-09T03:42:04;17.50;38.60
23079;DHT22;11707;50.830;4.364;2023-10-09T03:44:33;17.50;33.80
23079;DHT22;11707;50.830;4.364;2023-10-09T03:47:01;17.50;37.60
23079;DHT22;11707;50.830;4.364;2023-10-09T03:49:27;17.50;37.00
23079;DHT22;11707;50.830;4.364;2023-10-09T03:51:57;17.50;38.20
23079;DHT22;11707;50.830;4.364;2023-10-09T03:54:24;17.40;40.00
23079;DHT22;11707;50.830;4.364;2023-10-09T03:56:50;17.40;42.40
23079;DHT22;11707;50.830;4.364;2023-10-09T03:59:20;17.40;47.60
23079;DHT22;11707;50.830;4.364;2023-10-09T04:01:49;17.40;48.80
23079;DHT22;11707;50.830;4.364;2023-10-09T04:04:18;17.40;41.10
23079;DHT22;11707;50.830;4.364;2023-10-09T04:06:48;17.40;40.10
23079;DHT22;11707;50.830;4.364;2023-10-09T04:09:14;17.30;44.00
23079;DHT22;11707;50.830;4.364;2023-10-09T04:11:40;17.30;46.70
23079;DHT22;11707;50.830;4.364;2023-10-09T04:14:15;17.30;50.00
23079;DHT22;11707;50.830;4.364;2023-10-09T04:16:59;17.20;46.90
23079;DHT22;11707;50.830;4.364;2023-10-09T04:19:34;17.10;53.90
23079;DHT22;11707;50.830;4.364;2023-10-09T04:22:16;17.00;60.50
23079;DHT22;11707;50.830;4.364;2023-10-09T04:24:58;16.90;67.40
23079;DHT22;11707;50.830;4.364;2023-10-09T04:27:24;16.90;67.50
23079;DHT22;11707;50.830;4.364;2023-10-09T04:30:01;16.90;69.00
23079;DHT22;11707;50.830;4.364;2023-10-09T04:32:26;16.80;68.80
23079;DHT22;11707;50.830;4.364;2023-10-09T04:34:52;16.80;71.40
23079;DHT22;11707;50.830;4.364;2023-10-09T04:37:36;16.80;72.50
23079;DHT22;11707;50.830;4.364;2023-10-09T04:40:03;17.00;64.30
23079;DHT22;11707;50.830;4.364;2023-10-09T04:43:01;17.00;63.20
23079;DHT22;11707;50.830;4.364;2023-10-09T04:45:34;17.00;66.50
23079;DHT22;11707;50.830;4.364;2023-10-09T04:48:10;17.00;65.50
23079;DHT22;11707;50.830;4.364;2023-10-09T04:50:36;17.00;63.20
23079;DHT22;11707;50.830;4.364;2023-10-09T04:53:12;17.00;63.70
23079;DHT22;11707;50.830;4.364;2023-10-09T04:55:44;17.00;61.10
23079;DHT22;11707;50.830;4.364;2023-10-09T04:58:20;17.00;59.80
23079;DHT22;11707;50.830;4.364;2023-10-09T05:00:55;17.00;63.30
23079;DHT22;11707;50.830;4.364;2023-10-09T05:03:24;17.00;61.80
23079;DHT22;11707;50.830;4.364;2023-10-09T05:05:53;16.90;65.10
23079;DHT22;11707;50.830;4.364;2023-10-09T05:08:28;16.90;66.30
23079;DHT22;11707;50.830;4.364;2023-10-09T05:10:55;16.90;69.00
23079;DHT22;11707;50.830;4.364;2023-10-09T05:13:31;16.70;75.90
23079;DHT22;11707;50.830;4.364;2023-10-09T05:18:47;16.80;71.30
23079;DHT22;11707;50.830;4.364;2023-10-09T05:21:25;16.90;68.90
23079;DHT22;11707;50.830;4.364;2023-10-09T05:23:54;16.90;70.50
23079;DHT22;11707;50.830;4.364;2023-10-09T05:26:55;16.90;69.70
23079;DHT22;11707;50.830;4.364;2023-10-09T05:29:41;16.90;69.00
23079;DHT22;11707;50.830;4.364;2023-10-09T05:32:25;16.90;68.70
23079;DHT22;11707;50.830;4.364;2023-10-09T05:34:55;16.90;65.70
23079;DHT22;11707;50.830;4.364;2023-10-09T05:37:24;16.80;71.10
23079;DHT22;11707;50.830;4.364;2023-10-09T05:39:54;16.70;74.60
23079;DHT22;11707;50.830;4.364;2023-10-09T05:42:27;16.60;80.70
23079;DHT22;11707;50.830;4.364;2023-10-09T05:45:05;16.50;83.30
23079;DHT22;11707;50.830;4.364;2023-10-09T05:47:44;16.40;88.70
23079;DHT22;11707;50.830;4.364;2023-10-09T05:50:27;16.30;91.00
23079;DHT22;11707;50.830;4.364;2023-10-09T05:52:54;16.30;91.30
23079;DHT22;11707;50.830;4.364;2023-10-09T05:55:24;16.30;90.30
23079;DHT22;11707;50.830;4.364;2023-10-09T05:57:54;16.20;91.70
23079;DHT22;11707;50.830;4.364;2023-10-09T06:00:39;16.10;93.30
23079;DHT22;11707;50.830;4.364;2023-10-09T06:03:23;16.10;94.50
23079;DHT22;11707;50.830;4.364;2023-10-09T06:06:11;16.10;95.90
23079;DHT22;11707;50.830;4.364;2023-10-09T06:08:57;16.00;96.60
23079;DHT22;11707;50.830;4.364;2023-10-09T06:11:35;16.10;95.70
23079;DHT22;11707;50.830;4.364;2023-10-09T06:14:05;16.10;95.00
23079;DHT22;11707;50.830;4.364;2023-10-09T06:16:37;16.20;93.70
23079;DHT22;11707;50.830;4.364;2023-10-09T06:19:05;16.30;93.90
23079;DHT22;11707;50.830;4.364;2023-10-09T06:21:41;16.30;91.90
23079;DHT22;11707;50.830;4.364;2023-10-09T06:24:27;16.30;92.90
23079;DHT22;11707;50.830;4.364;2023-10-09T06:27:13;16.30;91.80
23079;DHT22;11707;50.830;4.364;2023-10-09T06:29:54;16.30;92.00
23079;DHT22;11707;50.830;4.364;2023-10-09T06:32:43;16.30;93.40
23079;DHT22;11707;50.830;4.364;2023-10-09T06:35:17;16.40;92.90
23079;DHT22;11707;50.830;4.364;2023-10-09T06:37:51;16.50;90.40
23079;DHT22;11707;50.830;4.364;2023-10-09T06:40:39;16.60;87.40
23079;DHT22;11707;50.830;4.364;2023-10-09T06:43:19;16.60;84.10
23079;DHT22;11707;50.830;4.364;2023-10-09T06:45:51;16.50;87.30
23079;DHT22;11707;50.830;4.364;2023-10-09T06:48:26;16.60;86.40
23079;DHT22;11707;50.830;4.364;2023-10-09T06:51:04;16.50;88.30
23079;DHT22;11707;50.830;4.364;2023-10-09T06:53:42;16.60;89.60
23079;DHT22;11707;50.830;4.364;2023-10-09T06:56:26;16.60;84.40
23079;DHT22;11707;50.830;4.364;2023-10-09T07:01:24;16.50;88.60
23079;DHT22;11707;50.830;4.364;2023-10-09T07:03:59;16.60;89.60
23079;DHT22;11707;50.830;4.364;2023-10-09T07:06:44;16.70;89.50
23079;DHT22;11707;50.830;4.364;2023-10-09T07:09:10;16.80;77.50
23079;DHT22;11707;50.830;4.364;2023-10-09T07:11:46;16.60;82.80
23079;DHT22;11707;50.830;4.364;2023-10-09T07:14:20;16.60;85.80
23079;DHT22;11707;50.830;4.364;2023-10-09T07:17:18;16.60;87.90
23079;DHT22;11707;50.830;4.364;2023-10-09T07:19:59;16.60;87.80
23079;DHT22;11707;50.830;4.364;2023-10-09T07:22:43;16.50;89.90
23079;DHT22;11707;50.830;4.364;2023-10-09T07:25:21;16.50;90.10
23079;DHT22;11707;50.830;4.364;2023-10-09T07:28:11;16.60;89.70
23079;DHT22;11707;50.830;4.364;2023-10-09T07:31:20;16.60;91.00
23079;DHT22;11707;50.830;4.364;2023-10-09T07:33:55;16.60;89.70
23079;DHT22;11707;50.830;4.364;2023-10-09T07:36:25;16.70;89.10
23079;DHT22;11707;50.830;4.364;2023-10-09T07:39:16;16.70;85.80
23079;DHT22;11707;50.830;4.364;2023-10-09T07:41:42;16.60;86.00
23079;DHT22;11707;50.830;4.364;2023-10-09T07:44:21;16.70;84.40
23079;DHT22;11707;50.830;4.364;2023-10-09T07:47:02;16.60;85.70
23079;DHT22;11707;50.830;4.364;2023-10-09T07:49:44;16.70;84.50
23079;DHT22;11707;50.830;4.364;2023-10-09T07:52:19;16.80;80.00
23079;DHT22;11707;50.830;4.364;2023-10-09T07:54:47;16.90;81.30
23079;DHT22;11707;50.830;4.364;2023-10-09T07:57:19;17.00;74.80
23079;DHT22;11707;50.830;4.364;2023-10-09T07:59:51;17.10;72.80
23079;DHT22;11707;50.830;4.364;2023-10-09T08:02:28;17.20;63.70
23079;DHT22;11707;50.830;4.364;2023-10-09T08:05:02;17.40;61.30
23079;DHT22;11707;50.830;4.364;2023-10-09T08:07:32;17.50;52.20
23079;DHT22;11707;50.830;4.364;2023-10-09T08:10:04;17.40;52.70
23079;DHT22;11707;50.830;4.364;2023-10-09T08:12:45;17.40;54.80
23079;DHT22;11707;50.830;4.364;2023-10-09T08:15:14;17.30;60.00
23079;DHT22;11707;50.830;4.364;2023-10-09T08:17:39;17.50;51.00
23079;DHT22;11707;50.830;4.364;2023-10-09T08:20:05;17.40;49.50
23079;DHT22;11707;50.830;4.364;2023-10-09T08:22:37;17.30;56.30
23079;DHT22;11707;50.830;4.364;2023-10-09T08:25:11;17.20;58.80
23079;DHT22;11707;50.830;4.364;2023-10-09T08:28:02;17.10;65.60
23079;DHT22;11707;50.830;4.364;2023-10-09T08:30:40;17.20;65.40
23079;DHT22;11707;50.830;4.364;2023-10-09T08:33:14;17.20;63.00
23079;DHT22;11707;50.830;4.364;2023-10-09T08:35:56;17.30;61.50
23079;DHT22;11707;50.830;4.364;2023-10-09T08:38:31;17.30;59.70
23079;DHT22;11707;50.830;4.364;2023-10-09T08:41:10;17.40;55.40
23079;DHT22;11707;50.830;4.364;2023-10-09T08:46:20;17.70;52.20
23079;DHT22;11707;50.830;4.364;2023-10-09T08:48:50;17.90;48.20
23079;DHT22;11707;50.830;4.364;2023-10-09T08:51:17;18.10;40.80
23079;DHT22;11707;50.830;4.364;2023-10-09T08:53:44;18.20;33.50
23079;DHT22;11707;50.830;4.364;2023-10-09T08:56:16;18.30;27.80
23079;DHT22;11707;50.830;4.364;2023-10-09T08:58:48;18.50;20.10
23079;DHT22;11707;50.830;4.364;2023-10-09T09:01:19;18.50;19.40
23079;DHT22;11707;50.830;4.364;2023-10-09T09:03:48;18.40;19.40
23079;DHT22;11707;50.830;4.364;2023-10-09T09:06:14;18.60;19.30
23079;DHT22;11707;50.830;4.364;2023-10-09T09:08:40;18.70;11.20
23079;DHT22;11707;50.830;4.364;2023-10-09T09:11:14;18.80;4.30
23079;DHT22;11707;50.830;4.364;2023-10-09T09:13:47;18.90;1.00
23079;DHT22;11707;50.830;4.364;2023-10-09T09:19:01;19.00;1.00
23079;DHT22;11707;50.830;4.364;2023-10-09T09:21:32;19.20;1.00
23079;DHT22;11707;50.830;4.364;2023-10-09T09:24:09;19.20;1.00
23079;DHT22;11707;50.830;4.364;2023-10-09T09:26:47;19.20;1.00
23079;DHT22;11707;50.830;4.364;2023-10-09T09:29:37;19.10;1.00
23079;DHT22;11707;50.830;4.364;2023-10-09T09:32:10;19.10;1.00
23079;DHT22;11707;50.830;4.364;2023-10-09T09:34:52;19.10;1.00
23079;DHT22;11707;50.830;4.364;2023-10-09T09:37:24;19.00;1.00
23079;DHT22;11707;50.830;4.364;2023-10-09T09:39:59;19.00;1.00
23079;DHT22;11707;50.830;4.364;2023-10-09T09:42:27;19.20;1.00
23079;DHT22;11707;50.830;4.364;2023-10-09T09:44:55;19.20;1.00
23079;DHT22;11707;50.830;4.364;2023-10-09T09:47:21;19.40;1.00
23079;DHT22;11707;50.830;4.364;2023-10-09T09:49:59;19.60;1.00
23079;DHT22;11707;50.830;4.364;2023-10-09T09:52:37;19.90;1.00
23079;DHT22;11707;50.830;4.364;2023-10-09T09:55:07;19.90;1.00
23079;DHT22;11707;50.830;4.364;2023-10-09T09:57:48;19.90;1.00
23079;DHT22;11707;50.830;4.364;2023-10-09T10:00:20;19.70;1.00
23079;DHT22;11707;50.830;4.364;2023-10-09T10:05:55;19.10;1.00
23079;DHT22;11707;50.830;4.364;2023-10-09T10:08:23;18.90;1.00
23079;DHT22;11707;50.830;4.364;2023-10-09T10:10:57;19.00;1.00
23079;DHT22;11707;50.830;4.364;2023-10-09T10:16:12;18.90;6.10
23079;DHT22;11707;50.830;4.364;2023-10-09T10:21:19;18.80;9.50
23079;DHT22;11707;50.830;4.364;2023-10-09T10:24:02;18.90;3.50
23079;DHT22;11707;50.830;4.364;2023-10-09T10:26:33;19.00;1.70
23079;DHT22;11707;50.830;4.364;2023-10-09T10:29:21;19.10;1.00
23079;DHT22;11707;50.830;4.364;2023-10-09T10:31:57;19.10;1.00
23079;DHT22;11707;50.830;4.364;2023-10-09T10:34:26;19.10;1.00
23079;DHT22;11707;50.830;4.364;2023-10-09T10:37:12;19.20;1.00
23079;DHT22;11707;50.830;4.364;2023-10-09T10:39:53;19.30;1.00
23079;DHT22;11707;50.830;4.364;2023-10-09T10:42:25;19.20;1.00
23079;DHT22;11707;50.830;4.364;2023-10-09T10:45:03;19.20;1.00
23079;DHT22;11707;50.830;4.364;2023-10-09T10:47:49;19.10;1.00
23079;DHT22;11707;50.830;4.364;2023-10-09T10:50:17;19.00;1.00
23079;DHT22;11707;50.830;4.364;2023-10-09T10:53:12;19.10;1.00
23079;DHT22;11707;50.830;4.364;2023-10-09T10:56:03;19.20;1.00
23079;DHT22;11707;50.830;4.364;2023-10-09T10:58:52;19.50;1.00
23079;DHT22;11707;50.830;4.364;2023-10-09T11:01:31;19.50;1.00
23079;DHT22;11707;50.830;4.364;2023-10-09T11:04:26;19.60;1.00
23079;DHT22;11707;50.830;4.364;2023-10-09T11:06:59;19.50;1.00
23079;DHT22;11707;50.830;4.364;2023-10-09T11:09:46;19.70;1.00
23079;DHT22;11707;50.830;4.364;2023-10-09T11:12:50;19.80;1.00
23079;DHT22;11707;50.830;4.364;2023-10-09T11:15:33;19.90;1.00
23079;DHT22;11707;50.830;4.364;2023-10-09T11:18:15;20.00;1.00
23079;DHT22;11707;50.830;4.364;2023-10-09T11:20:56;19.90;1.00
23079;DHT22;11707;50.830;4.364;2023-10-09T11:23:29;19.80;1.00
23079;DHT22;11707;50.830;4.364;2023-10-09T11:26:04;19.80;1.00
23079;DHT22;11707;50.830;4.364;2023-10-09T11:34:28;19.70;1.00
23079;DHT22;11707;50.830;4.364;2023-10-09T11:37:02;19.70;1.00
23079;DHT22;11707;50.830;4.364;2023-10-09T11:39:32;19.70;1.00
23079;DHT22;11707;50.830;4.364;2023-10-09T11:42:06;19.80;1.00
23079;DHT22;11707;50.830;4.364;2023-10-09T11:44:44;19.90;1.00
23079;DHT22;11707;50.830;4.364;2023-10-09T11:47:11;19.90;1.00
23079;DHT22;11707;50.830;4.364;2023-10-09T11:49:59;20.00;1.00
23079;DHT22;11707;50.830;4.364;2023-10-09T11:52:28;20.00;1.00
23079;DHT22;11707;50.830;4.364;2023-10-09T11:55:04;20.10;1.00
23079;DHT22;11707;50.830;4.364;2023-10-09T11:57:40;20.10;1.00
23079;DHT22;11707;50.830;4.364;2023-10-09T12:00:07;20.10;1.00
23079;DHT22;11707;50.830;4.364;2023-10-09T12:02:36;20.30;1.00
23079;DHT22;11707;50.830;4.364;2023-10-09T12:05:10;20.40;1.00
23079;DHT22;11707;50.830;4.364;2023-10-09T12:07:43;20.40;1.00
23079;DHT22;11707;50.830;4.364;2023-10-09T12:10:09;20.40;1.00
23079;DHT22;11707;50.830;4.364;2023-10-09T12:12:35;20.60;1.00
23079;DHT22;11707;50.830;4.364;2023-10-09T12:15:02;20.90;1.00
23079;DHT22;11707;50.830;4.364;2023-10-09T12:17:30;21.10;1.00
23079;DHT22;11707;50.830;4.364;2023-10-09T12:19:56;21.40;99.90
23079;DHT22;11707;50.830;4.364;2023-10-09T12:22:22;21.50;99.90
23079;DHT22;11707;50.830;4.364;2023-10-09T12:24:52;21.40;99.90
23079;DHT22;11707;50.830;4.364;2023-10-09T12:27:19;21.40;99.90
23079;DHT22;11707;50.830;4.364;2023-10-09T12:29:48;21.40;99.90
23079;DHT22;11707;50.830;4.364;2023-10-09T12:32:17;21.30;99.90
23079;DHT22;11707;50.830;4.364;2023-10-09T12:34:46;21.10;99.90
23079;DHT22;11707;50.830;4.364;2023-10-09T12:37:15;21.10;99.90
23079;DHT22;11707;50.830;4.364;2023-10-09T12:39:42;20.90;99.90
23079;DHT22;11707;50.830;4.364;2023-10-09T12:42:08;20.80;99.90
23079;DHT22;11707;50.830;4.364;2023-10-09T12:44:36;20.90;99.90
23079;DHT22;11707;50.830;4.364;2023-10-09T12:47:05;20.90;99.90
23079;DHT22;11707;50.830;4.364;2023-10-09T12:49:39;20.90;99.90
23079;DHT22;11707;50.830;4.364;2023-10-09T12:52:07;21.10;99.90
23079;DHT22;11707;50.830;4.364;2023-10-09T12:54:43;21.30;99.90
23079;DHT22;11707;50.830;4.364;2023-10-09T12:57:09;21.30;99.90
23079;DHT22;11707;50.830;4.364;2023-10-09T12:59:39;21.30;99.90
23079;DHT22;11707;50.830;4.364;2023-10-09T13:02:14;21.30;99.90
23079;DHT22;11707;50.830;4.364;2023-10-09T13:04:54;21.20;99.90
23079;DHT22;11707;50.830;4.364;2023-10-09T13:07:20;21.10;99.90
23079;DHT22;11707;50.830;4.364;2023-10-09T13:09:48;21.20;99.90
23079;DHT22;11707;50.830;4.364;2023-10-09T13:12:34;21.20;99.90
23079;DHT22;11707;50.830;4.364;2023-10-09T13:15:05;21.10;99.90
23079;DHT22;11707;50.830;4.364;2023-10-09T13:17:38;21.30;99.90
23079;DHT22;11707;50.830;4.364;2023-10-09T13:20:05;21.40;99.90
23079;DHT22;11707;50.830;4.364;2023-10-09T13:22:42;21.40;99.90
23079;DHT22;11707;50.830;4.364;2023-10-09T13:25:11;21.40;99.90
23079;DHT22;11707;50.830;4.364;2023-10-09T13:27:50;21.40;99.90
23079;DHT22;11707;50.830;4.364;2023-10-09T13:30:20;21.60;99.90
23079;DHT22;11707;50.830;4.364;2023-10-09T13:32:54;21.60;99.90
23079;DHT22;11707;50.830;4.364;2023-10-09T13:35:20;21.60;99.90
23079;DHT22;11707;50.830;4.364;2023-10-09T13:37:53;21.60;99.90
23079;DHT22;11707;50.830;4.364;2023-10-09T13:40:22;21.70;99.90
23079;DHT22;11707;50.830;4.364;2023-10-09T13:42:55;21.70;99.90
23079;DHT22;11707;50.830;4.364;2023-10-09T13:45:27;21.70;99.90
23079;DHT22;11707;50.830;4.364;2023-10-09T13:47:56;21.70;99.90
23079;DHT22;11707;50.830;4.364;2023-10-09T13:50:26;21.50;99.90
23079;DHT22;11707;50.830;4.364;2023-10-09T13:52:55;21.50;1.00
23079;DHT22;11707;50.830;4.364;2023-10-09T13:55:21;21.60;1.00
23079;DHT22;11707;50.830;4.364;2023-10-09T13:57:57;21.70;99.90
23079;DHT22;11707;50.830;4.364;2023-10-09T14:00:23;21.50;1.00
23079;DHT22;11707;50.830;4.364;2023-10-09T14:03:03;21.60;1.00
23079;DHT22;11707;50.830;4.364;2023-10-09T14:05:39;21.60;1.00
23079;DHT22;11707;50.830;4.364;2023-10-09T14:08:18;21.60;1.00
23079;DHT22;11707;50.830;4.364;2023-10-09T14:10:44;21.60;1.00
23079;DHT22;11707;50.830;4.364;2023-10-09T14:13:14;21.60;1.00
23079;DHT22;11707;50.830;4.364;2023-10-09T14:15:42;21.70;1.00
23079;DHT22;11707;50.830;4.364;2023-10-09T14:18:08;21.60;1.00
23079;DHT22;11707;50.830;4.364;2023-10-09T14:20:37;21.70;1.00
23079;DHT22;11707;50.830;4.364;2023-10-09T14:23:03;21.80;1.00
23079;DHT22;11707;50.830;4.364;2023-10-09T14:25:36;22.00;1.00
23079;DHT22;11707;50.830;4.364;2023-10-09T14:28:11;22.30;99.90
23079;DHT22;11707;50.830;4.364;2023-10-09T14:30:37;22.40;99.90
23079;DHT22;11707;50.830;4.364;2023-10-09T14:33:12;22.00;1.00
23079;DHT22;11707;50.830;4.364;2023-10-09T14:35:39;21.70;1.00
23079;DHT22;11707;50.830;4.364;2023-10-09T14:38:06;21.70;1.00
23079;DHT22;11707;50.830;4.364;2023-10-09T14:40:45;21.70;1.00
23079;DHT22;11707;50.830;4.364;2023-10-09T14:43:11;21.70;1.00
23079;DHT22;11707;50.830;4.364;2023-10-09T14:45:49;21.70;1.00
23079;DHT22;11707;50.830;4.364;2023-10-09T14:48:19;21.70;1.00
23079;DHT22;11707;50.830;4.364;2023-10-09T14:50:52;21.90;1.00
23079;DHT22;11707;50.830;4.364;2023-10-09T14:53:22;21.90;1.00
23079;DHT22;11707;50.830;4.364;2023-10-09T14:56:00;21.90;1.00
23079;DHT22;11707;50.830;4.364;2023-10-09T14:58:30;21.80;1.00
23079;DHT22;11707;50.830;4.364;2023-10-09T15:01:06;21.90;1.00
23079;DHT22;11707;50.830;4.364;2023-10-09T15:03:35;21.90;1.00
23079;DHT22;11707;50.830;4.364;2023-10-09T15:06:03;21.80;1.00
23079;DHT22;11707;50.830;4.364;2023-10-09T15:08:29;21.80;1.00
23079;DHT22;11707;50.830;4.364;2023-10-09T15:10:55;21.70;1.00
23079;DHT22;11707;50.830;4.364;2023-10-09T15:13:24;21.60;1.00
23079;DHT22;11707;50.830;4.364;2023-10-09T15:15:56;21.70;1.00
23079;DHT22;11707;50.830;4.364;2023-10-09T15:18:22;21.70;1.00
23079;DHT22;11707;50.830;4.364;2023-10-09T15:20:48;21.80;1.00
23079;DHT22;11707;50.830;4.364;2023-10-09T15:23:14;21.70;1.00
23079;DHT22;11707;50.830;4.364;2023-10-09T15:25:42;21.70;1.00
23079;DHT22;11707;50.830;4.364;2023-10-09T15:28:11;21.60;1.00
23079;DHT22;11707;50.830;4.364;2023-10-09T15:30:38;21.50;1.00
23079;DHT22;11707;50.830;4.364;2023-10-09T15:33:07;21.40;1.00
23079;DHT22;11707;50.830;4.364;2023-10-09T15:35:37;21.40;1.00
23079;DHT22;11707;50.830;4.364;2023-10-09T15:38:05;21.30;1.00
23079;DHT22;11707;50.830;4.364;2023-10-09T15:40:31;21.30;1.00
23079;DHT22;11707;50.830;4.364;2023-10-09T15:43:04;21.30;1.00
23079;DHT22;11707;50.830;4.364;2023-10-09T15:45:31;21.30;1.00
23079;DHT22;11707;50.830;4.364;2023-10-09T15:47:59;21.30;1.00
23079;DHT22;11707;50.830;4.364;2023-10-09T15:50:30;21.10;1.00
23079;DHT22;11707;50.830;4.364;2023-10-09T15:53:00;21.10;1.00
23079;DHT22;11707;50.830;4.364;2023-10-09T15:55:28;21.00;1.00
23079;DHT22;11707;50.830;4.364;2023-10-09T15:57:54;21.00;1.00
23079;DHT22;11707;50.830;4.364;2023-10-09T16:00:21;21.00;1.00
23079;DHT22;11707;50.830;4.364;2023-10-09T16:02:53;21.00;1.00
23079;DHT22;11707;50.830;4.364;2023-10-09T16:05:19;21.00;1.00
23079;DHT22;11707;50.830;4.364;2023-10-09T16:07:54;21.00;1.00
23079;DHT22;11707;50.830;4.364;2023-10-09T16:10:20;21.00;1.00
23079;DHT22;11707;50.830;4.364;2023-10-09T16:12:49;21.10;1.00
23079;DHT22;11707;50.830;4.364;2023-10-09T16:15:18;21.10;1.00
23079;DHT22;11707;50.830;4.364;2023-10-09T16:17:48;21.10;1.00
23079;DHT22;11707;50.830;4.364;2023-10-09T16:20:14;21.00;1.00
23079;DHT22;11707;50.830;4.364;2023-10-09T16:22:50;21.10;1.00
23079;DHT22;11707;50.830;4.364;2023-10-09T16:25:16;21.00;1.00
23079;DHT22;11707;50.830;4.364;2023-10-09T16:27:51;21.20;1.00
23079;DHT22;11707;50.830;4.364;2023-10-09T16:30:20;21.10;1.00
23079;DHT22;11707;50.830;4.364;2023-10-09T16:32:51;21.10;1.00
23079;DHT22;11707;50.830;4.364;2023-10-09T16:35:17;21.10;1.00
23079;DHT22;11707;50.830;4.364;2023-10-09T16:37:43;21.10;1.00
23079;DHT22;11707;50.830;4.364;2023-10-09T16:40:09;21.10;1.00
23079;DHT22;11707;50.830;4.364;2023-10-09T16:42:41;21.10;1.00
23079;DHT22;11707;50.830;4.364;2023-10-09T16:45:10;21.10;1.00
23079;DHT22;11707;50.830;4.364;2023-10-09T16:47:50;21.10;1.00